sensor_id;sensor_type;location;lat;lon;timestamp;pressure;altitude;pressure_sealevel;temperature;humidity
72798;BME280;61084;55.816;37.036;2023-04-28T00:00:41;98876.41;;;13.69;53.05
72798;BME280;61084;55.816;37.036;2023-04-28T00:03:07;98871.47;;;13.64;53.30
72798;BME280;61084;55.816;37.036;2023-04-28T00:05:33;98872.66;;;13.60;53.14
72798;BME280;61084;55.816;37.036;2023-04-28T00:07:58;98875.53;;;13.57;53.14
72798;BME280;61084;55.816;37.036;2023-04-28T00:10:24;98879.31;;;13.53;53.38
72798;BME280;61084;55.816;37.036;2023-04-28T00:12:50;98869.97;;;13.49;53.62
72798;BME280;61084;55.816;37.036;2023-04-28T00:15:16;98881.56;;;13.46;53.42
72798;BME280;61084;55.816;37.036;2023-04-28T00:17:42;98881.91;;;13.42;53.41
72798;BME280;61084;55.816;37.036;2023-04-28T00:20:09;98877.06;;;13.36;53.62
72798;BME280;61084;55.816;37.036;2023-04-28T00:22:35;98872.13;;;13.31;53.60
72798;BME280;61084;55.816;37.036;2023-04-28T00:25:01;98873.31;;;13.27;53.72
72798;BME280;61084;55.816;37.036;2023-04-28T00:27:32;98877.84;;;13.25;53.82
72798;BME280;61084;55.816;37.036;2023-04-28T00:29:58;98884.31;;;13.21;53.78
72798;BME280;61084;55.816;37.036;2023-04-28T00:32:24;98882.00;;;13.17;53.88
72798;BME280;61084;55.816;37.036;2023-04-28T00:34:49;98876.00;;;13.15;53.70
72798;BME280;61084;55.816;37.036;2023-04-28T00:37:16;98871.78;;;13.12;53.91
72798;BME280;61084;55.816;37.036;2023-04-28T00:39:42;98869.38;;;13.09;53.95
72798;BME280;61084;55.816;37.036;2023-04-28T00:42:12;98865.91;;;13.09;53.95
72798;BME280;61084;55.816;37.036;2023-04-28T00:44:38;98869.47;;;13.08;54.17
72798;BME280;61084;55.816;37.036;2023-04-28T00:47:07;98864.31;;;13.06;54.19
72798;BME280;61084;55.816;37.036;2023-04-28T00:49:35;98864.63;;;13.02;54.11
72798;BME280;61084;55.816;37.036;2023-04-28T00:52:04;98862.09;;;13.00;54.49
72798;BME280;61084;55.816;37.036;2023-04-28T00:57:35;98860.00;;;12.93;54.75
72798;BME280;61084;55.816;37.036;2023-04-28T01:00:19;98864.75;;;12.87;54.69
72798;BME280;61084;55.816;37.036;2023-04-28T01:03:40;98866.97;;;12.81;54.85
72798;BME280;61084;55.816;37.036;2023-04-28T01:09:10;98857.84;;;12.74;54.46
72798;BME280;61084;55.816;37.036;2023-04-28T01:12:14;98865.94;;;12.71;54.43
72798;BME280;61084;55.816;37.036;2023-04-28T01:14:42;98872.16;;;12.70;54.72
72798;BME280;61084;55.816;37.036;2023-04-28T01:17:09;98875.94;;;12.66;54.56
72798;BME280;61084;55.816;37.036;2023-04-28T01:19:35;98874.38;;;12.63;54.68
72798;BME280;61084;55.816;37.036;2023-04-28T01:22:02;98872.88;;;12.59;54.58
72798;BME280;61084;55.816;37.036;2023-04-28T01:24:29;98868.72;;;12.57;54.58
72798;BME280;61084;55.816;37.036;2023-04-28T01:26:59;98860.81;;;12.57;54.71
72798;BME280;61084;55.816;37.036;2023-04-28T01:29:26;98859.09;;;12.56;54.88
72798;BME280;61084;55.816;37.036;2023-04-28T01:32:11;98866.28;;;12.54;55.03
72798;BME280;61084;55.816;37.036;2023-04-28T01:34:38;98868.28;;;12.50;55.09
72798;BME280;61084;55.816;37.036;2023-04-28T01:37:05;98879.75;;;12.49;54.96
72798;BME280;61084;55.816;37.036;2023-04-28T01:39:31;98873.75;;;12.47;55.13
72798;BME280;61084;55.816;37.036;2023-04-28T01:41:57;98878.28;;;12.45;55.40
72798;BME280;61084;55.816;37.036;2023-04-28T01:44:23;98867.03;;;12.43;55.45
72798;BME280;61084;55.816;37.036;2023-04-28T01:46:48;98869.84;;;12.40;55.13
72798;BME280;61084;55.816;37.036;2023-04-28T01:49:14;98858.59;;;12.38;55.17
72798;BME280;61084;55.816;37.036;2023-04-28T01:51:59;98862.25;;;12.36;55.40
72798;BME280;61084;55.816;37.036;2023-04-28T01:54:43;98858.91;;;12.34;55.58
72798;BME280;61084;55.816;37.036;2023-04-28T01:57:28;98853.75;;;12.32;55.66
72798;BME280;61084;55.816;37.036;2023-04-28T01:59:56;98854.91;;;12.28;55.39
72798;BME280;61084;55.816;37.036;2023-04-28T02:02:21;98845.31;;;12.27;55.25
72798;BME280;61084;55.816;37.036;2023-04-28T02:05:06;98850.91;;;12.23;55.92
72798;BME280;61084;55.816;37.036;2023-04-28T02:07:32;98845.75;;;12.21;55.50
72798;BME280;61084;55.816;37.036;2023-04-28T02:09:58;98848.56;;;12.18;55.69
72798;BME280;61084;55.816;37.036;2023-04-28T02:15:29;98857.31;;;12.19;55.84
72798;BME280;61084;55.816;37.036;2023-04-28T02:17:55;98862.59;;;12.19;55.93
72798;BME280;61084;55.816;37.036;2023-04-28T02:20:21;98858.16;;;12.19;56.11
72798;BME280;61084;55.816;37.036;2023-04-28T02:23:05;98855.53;;;12.19;56.17
72798;BME280;61084;55.816;37.036;2023-04-28T02:25:31;98850.16;;;12.21;55.95
72798;BME280;61084;55.816;37.036;2023-04-28T02:27:57;98856.38;;;12.20;55.86
72798;BME280;61084;55.816;37.036;2023-04-28T02:30:26;98860.69;;;12.21;55.71
72798;BME280;61084;55.816;37.036;2023-04-28T02:32:54;98859.75;;;12.22;55.93
72798;BME280;61084;55.816;37.036;2023-04-28T02:35:20;98866.59;;;12.24;56.17
72798;BME280;61084;55.816;37.036;2023-04-28T02:41:03;98882.09;;;12.29;56.74
72798;BME280;61084;55.816;37.036;2023-04-28T02:43:30;98875.75;;;12.31;56.44
72798;BME280;61084;55.816;37.036;2023-04-28T02:45:56;98875.97;;;12.28;56.55
72798;BME280;61084;55.816;37.036;2023-04-28T02:48:23;98880.06;;;12.32;56.71
72798;BME280;61084;55.816;37.036;2023-04-28T02:51:08;98880.69;;;12.36;56.98
72798;BME280;61084;55.816;37.036;2023-04-28T02:53:52;98874.59;;;12.35;56.62
72798;BME280;61084;55.816;37.036;2023-04-28T02:59:05;98885.34;;;12.45;56.80
72798;BME280;61084;55.816;37.036;2023-04-28T03:01:32;98883.53;;;12.45;56.84
72798;BME280;61084;55.816;37.036;2023-04-28T03:03:58;98889.44;;;12.49;56.82
72798;BME280;61084;55.816;37.036;2023-04-28T03:06:24;98889.22;;;12.52;56.88
72798;BME280;61084;55.816;37.036;2023-04-28T03:08:51;98893.44;;;12.54;56.90
72798;BME280;61084;55.816;37.036;2023-04-28T03:11:17;98900.19;;;12.58;57.06
72798;BME280;61084;55.816;37.036;2023-04-28T03:13:42;98903.44;;;12.62;56.91
72798;BME280;61084;55.816;37.036;2023-04-28T03:16:09;98912.06;;;12.64;56.75
72798;BME280;61084;55.816;37.036;2023-04-28T03:18:34;98910.41;;;12.63;57.10
72798;BME280;61084;55.816;37.036;2023-04-28T03:21:00;98908.63;;;12.63;56.98
72798;BME280;61084;55.816;37.036;2023-04-28T03:23:27;98910.28;;;12.64;56.98
72798;BME280;61084;55.816;37.036;2023-04-28T03:25:53;98912.81;;;12.66;57.00
72798;BME280;61084;55.816;37.036;2023-04-28T03:28:20;98924.06;;;12.68;58.04
72798;BME280;61084;55.816;37.036;2023-04-28T03:30:46;98932.75;;;12.70;57.56
72798;BME280;61084;55.816;37.036;2023-04-28T03:35:57;98924.72;;;12.71;57.54
72798;BME280;61084;55.816;37.036;2023-04-28T03:38:24;98926.38;;;12.72;57.63
72798;BME280;61084;55.816;37.036;2023-04-28T03:40:50;98926.19;;;12.75;57.71
72798;BME280;61084;55.816;37.036;2023-04-28T03:43:45;98911.84;;;12.79;57.67
72798;BME280;61084;55.816;37.036;2023-04-28T03:46:31;98908.91;;;12.84;57.47
72798;BME280;61084;55.816;37.036;2023-04-28T03:48:59;98909.44;;;12.89;57.67
72798;BME280;61084;55.816;37.036;2023-04-28T03:51:29;98918.81;;;12.93;57.64
72798;BME280;61084;55.816;37.036;2023-04-28T03:53:57;98922.06;;;12.97;57.78
72798;BME280;61084;55.816;37.036;2023-04-28T03:56:23;98921.84;;;13.00;57.87
72798;BME280;61084;55.816;37.036;2023-04-28T03:58:49;98919.66;;;13.06;57.69
72798;BME280;61084;55.816;37.036;2023-04-28T04:01:16;98915.84;;;13.10;57.70
72798;BME280;61084;55.816;37.036;2023-04-28T04:03:42;98907.41;;;13.18;57.58
72798;BME280;61084;55.816;37.036;2023-04-28T04:06:08;98910.47;;;13.24;57.83
72798;BME280;61084;55.816;37.036;2023-04-28T04:08:34;98916.84;;;13.33;57.38
72798;BME280;61084;55.816;37.036;2023-04-28T04:13:44;98912.38;;;13.46;57.00
72798;BME280;61084;55.816;37.036;2023-04-28T04:16:14;98913.00;;;13.49;56.92
72798;BME280;61084;55.816;37.036;2023-04-28T04:18:41;98906.53;;;13.53;57.17
72798;BME280;61084;55.816;37.036;2023-04-28T04:21:30;98910.63;;;13.57;57.11
72798;BME280;61084;55.816;37.036;2023-04-28T04:23:57;98918.94;;;13.64;56.99
72798;BME280;61084;55.816;37.036;2023-04-28T04:26:23;98930.94;;;13.68;56.64
72798;BME280;61084;55.816;37.036;2023-04-28T04:28:50;98935.16;;;13.71;56.89
72798;BME280;61084;55.816;37.036;2023-04-28T04:31:16;98933.38;;;13.71;56.73
72798;BME280;61084;55.816;37.036;2023-04-28T04:33:45;98936.00;;;13.71;57.15
72798;BME280;61084;55.816;37.036;2023-04-28T04:36:11;98939.25;;;13.75;57.09
72798;BME280;61084;55.816;37.036;2023-04-28T04:38:38;98932.19;;;13.75;57.76
72798;BME280;61084;55.816;37.036;2023-04-28T04:41:11;98934.81;;;13.75;57.55
72798;BME280;61084;55.816;37.036;2023-04-28T04:43:37;98958.34;;;13.78;57.64
72798;BME280;61084;55.816;37.036;2023-04-28T04:46:03;98963.72;;;13.77;58.04
72798;BME280;61084;55.816;37.036;2023-04-28T04:48:48;98969.75;;;13.79;58.09
72798;BME280;61084;55.816;37.036;2023-04-28T04:51:32;98967.22;;;13.77;58.93
72798;BME280;61084;55.816;37.036;2023-04-28T04:54:00;98975.38;;;13.74;58.79
72798;BME280;61084;55.816;37.036;2023-04-28T04:56:26;98971.75;;;13.75;58.55
72798;BME280;61084;55.816;37.036;2023-04-28T04:58:52;98979.66;;;13.75;58.87
72798;BME280;61084;55.816;37.036;2023-04-28T05:01:34;98970.91;;;13.75;59.11
72798;BME280;61084;55.816;37.036;2023-04-28T05:04:00;98947.28;;;13.73;59.29
72798;BME280;61084;55.816;37.036;2023-04-28T05:06:26;98947.28;;;13.73;59.08
72798;BME280;61084;55.816;37.036;2023-04-28T05:08:52;98929.56;;;13.75;58.63
72798;BME280;61084;55.816;37.036;2023-04-28T05:11:18;98934.72;;;13.77;58.97
72798;BME280;61084;55.816;37.036;2023-04-28T05:14:03;98940.38;;;13.83;59.38
72798;BME280;61084;55.816;37.036;2023-04-28T05:16:29;98941.75;;;13.89;58.90
72798;BME280;61084;55.816;37.036;2023-04-28T05:19:22;98962.38;;;13.95;59.09
72798;BME280;61084;55.816;37.036;2023-04-28T05:21:48;98967.31;;;13.99;59.20
72798;BME280;61084;55.816;37.036;2023-04-28T05:24:14;98974.91;;;14.04;59.26
72798;BME280;61084;55.816;37.036;2023-04-28T05:26:40;98987.78;;;14.08;58.94
72798;BME280;61084;55.816;37.036;2023-04-28T05:29:09;98997.25;;;14.11;59.07
72798;BME280;61084;55.816;37.036;2023-04-28T05:31:35;98987.66;;;14.10;58.91
72798;BME280;61084;55.816;37.036;2023-04-28T05:34:01;98995.69;;;14.08;59.42
72798;BME280;61084;55.816;37.036;2023-04-28T05:36:27;98982.94;;;14.02;59.79
72798;BME280;61084;55.816;37.036;2023-04-28T05:38:53;98978.63;;;14.01;59.22
72798;BME280;61084;55.816;37.036;2023-04-28T05:41:19;98974.53;;;13.97;58.90
72798;BME280;61084;55.816;37.036;2023-04-28T05:43:45;98974.41;;;13.99;59.05
72798;BME280;61084;55.816;37.036;2023-04-28T05:46:12;98969.97;;;13.99;59.20
72798;BME280;61084;55.816;37.036;2023-04-28T05:48:38;98969.75;;;14.02;59.02
72798;BME280;61084;55.816;37.036;2023-04-28T05:51:04;98973.97;;;14.05;59.03
72798;BME280;61084;55.816;37.036;2023-04-28T05:53:30;98968.44;;;14.08;58.96
72798;BME280;61084;55.816;37.036;2023-04-28T05:55:56;98968.44;;;14.08;59.23
72798;BME280;61084;55.816;37.036;2023-04-28T05:58:22;98971.94;;;14.08;59.25
72798;BME280;61084;55.816;37.036;2023-04-28T06:00:48;98970.34;;;14.06;59.48
72798;BME280;61084;55.816;37.036;2023-04-28T06:03:16;98971.94;;;14.08;59.48
72798;BME280;61084;55.816;37.036;2023-04-28T06:05:44;98976.16;;;14.11;59.39
72798;BME280;61084;55.816;37.036;2023-04-28T06:08:12;98978.44;;;14.15;59.82
72798;BME280;61084;55.816;37.036;2023-04-28T06:10:38;98975.56;;;14.18;59.53
72798;BME280;61084;55.816;37.036;2023-04-28T06:13:03;98980.03;;;14.18;60.25
72798;BME280;61084;55.816;37.036;2023-04-28T06:15:32;98981.69;;;14.19;59.75
72798;BME280;61084;55.816;37.036;2023-04-28T06:17:58;98976.19;;;14.22;59.77
72798;BME280;61084;55.816;37.036;2023-04-28T06:20:24;98970.78;;;14.23;59.75
72798;BME280;61084;55.816;37.036;2023-04-28T06:22:50;98976.81;;;14.25;59.80
72798;BME280;61084;55.816;37.036;2023-04-28T06:25:17;98970.56;;;14.26;59.78
72798;BME280;61084;55.816;37.036;2023-04-28T06:27:46;98977.44;;;14.29;59.84
72798;BME280;61084;55.816;37.036;2023-04-28T06:30:19;98979.00;;;14.31;60.09
72798;BME280;61084;55.816;37.036;2023-04-28T06:32:46;98980.38;;;14.37;60.43
72798;BME280;61084;55.816;37.036;2023-04-28T06:35:12;98981.31;;;14.36;60.06
72798;BME280;61084;55.816;37.036;2023-04-28T06:37:38;98981.19;;;14.38;59.90
72798;BME280;61084;55.816;37.036;2023-04-28T06:40:04;98980.25;;;14.39;59.55
72798;BME280;61084;55.816;37.036;2023-04-28T06:42:30;98979.91;;;14.43;59.72
72798;BME280;61084;55.816;37.036;2023-04-28T06:45:04;98980.63;;;14.45;59.96
72798;BME280;61084;55.816;37.036;2023-04-28T06:47:31;98969.72;;;14.50;59.90
72798;BME280;61084;55.816;37.036;2023-04-28T06:49:56;98970.69;;;14.60;60.11
72798;BME280;61084;55.816;37.036;2023-04-28T06:52:22;98970.13;;;14.67;59.85
72798;BME280;61084;55.816;37.036;2023-04-28T06:54:49;98972.28;;;14.73;59.86
72798;BME280;61084;55.816;37.036;2023-04-28T06:57:16;98977.00;;;14.81;59.84
72798;BME280;61084;55.816;37.036;2023-04-28T06:59:42;98973.03;;;14.86;59.99
72798;BME280;61084;55.816;37.036;2023-04-28T07:02:09;98961.88;;;14.94;59.82
72798;BME280;61084;55.816;37.036;2023-04-28T07:04:36;98978.69;;;15.04;59.48
72798;BME280;61084;55.816;37.036;2023-04-28T07:07:02;98980.00;;;15.09;59.77
72798;BME280;61084;55.816;37.036;2023-04-28T07:09:51;98983.72;;;15.18;59.58
72798;BME280;61084;55.816;37.036;2023-04-28T07:12:18;98973.63;;;15.23;59.68
72798;BME280;61084;55.816;37.036;2023-04-28T07:14:43;98975.69;;;15.31;60.00
72798;BME280;61084;55.816;37.036;2023-04-28T07:17:09;98976.16;;;15.36;59.45
72798;BME280;61084;55.816;37.036;2023-04-28T07:19:35;98973.28;;;15.39;60.31
72798;BME280;61084;55.816;37.036;2023-04-28T07:22:01;98973.16;;;15.40;59.55
72798;BME280;61084;55.816;37.036;2023-04-28T07:24:27;98983.41;;;15.45;59.75
72798;BME280;61084;55.816;37.036;2023-04-28T07:26:53;98981.25;;;15.50;58.67
72798;BME280;61084;55.816;37.036;2023-04-28T07:29:19;98981.81;;;15.53;58.97
72798;BME280;61084;55.816;37.036;2023-04-28T07:31:45;98981.59;;;15.56;59.34
72798;BME280;61084;55.816;37.036;2023-04-28T07:34:10;98983.03;;;15.60;58.92
72798;BME280;61084;55.816;37.036;2023-04-28T07:36:36;98988.78;;;15.65;59.12
72798;BME280;61084;55.816;37.036;2023-04-28T07:39:02;98982.28;;;15.69;59.10
72798;BME280;61084;55.816;37.036;2023-04-28T07:41:28;98991.19;;;15.68;58.85
72798;BME280;61084;55.816;37.036;2023-04-28T07:44:13;98981.44;;;15.69;58.84
72798;BME280;61084;55.816;37.036;2023-04-28T07:46:38;98992.50;;;15.74;59.10
72798;BME280;61084;55.816;37.036;2023-04-28T07:49:22;98981.78;;;15.75;58.78
72798;BME280;61084;55.816;37.036;2023-04-28T07:51:48;98996.59;;;15.78;59.01
72798;BME280;61084;55.816;37.036;2023-04-28T07:54:33;98992.00;;;15.80;59.16
72798;BME280;61084;55.816;37.036;2023-04-28T07:56:59;98992.72;;;15.82;59.27
72798;BME280;61084;55.816;37.036;2023-04-28T07:59:25;98997.06;;;15.83;59.45
72798;BME280;61084;55.816;37.036;2023-04-28T08:01:51;99000.28;;;15.87;59.18
72798;BME280;61084;55.816;37.036;2023-04-28T08:04:17;99004.75;;;15.86;59.34
72798;BME280;61084;55.816;37.036;2023-04-28T08:06:43;98998.38;;;15.89;59.18
72798;BME280;61084;55.816;37.036;2023-04-28T08:09:09;99000.63;;;15.93;59.40
72798;BME280;61084;55.816;37.036;2023-04-28T08:11:35;98993.41;;;15.95;59.23
72798;BME280;61084;55.816;37.036;2023-04-28T08:14:00;99002.34;;;15.94;59.25
72798;BME280;61084;55.816;37.036;2023-04-28T08:16:28;99003.16;;;15.95;59.76
72798;BME280;61084;55.816;37.036;2023-04-28T08:18:54;99006.78;;;15.94;58.97
72798;BME280;61084;55.816;37.036;2023-04-28T08:21:19;99002.00;;;15.88;59.01
72798;BME280;61084;55.816;37.036;2023-04-28T08:23:45;99003.78;;;15.87;59.10
72798;BME280;61084;55.816;37.036;2023-04-28T08:26:11;99010.03;;;15.86;59.08
72798;BME280;61084;55.816;37.036;2023-04-28T08:28:37;99004.38;;;15.91;59.35
72798;BME280;61084;55.816;37.036;2023-04-28T08:31:03;99004.13;;;15.94;59.37
72798;BME280;61084;55.816;37.036;2023-04-28T08:33:30;99009.28;;;15.95;59.34
72798;BME280;61084;55.816;37.036;2023-04-28T08:35:56;99000.28;;;15.98;59.13
72798;BME280;61084;55.816;37.036;2023-04-28T08:38:22;99003.41;;;16.03;58.56
72798;BME280;61084;55.816;37.036;2023-04-28T08:40:50;99005.19;;;16.02;58.85
72798;BME280;61084;55.816;37.036;2023-04-28T08:43:16;99008.41;;;16.06;59.93
72798;BME280;61084;55.816;37.036;2023-04-28T08:45:42;99005.25;;;16.12;59.24
72798;BME280;61084;55.816;37.036;2023-04-28T08:48:20;99004.50;;;16.21;59.36
72798;BME280;61084;55.816;37.036;2023-04-28T08:50:51;99009.56;;;16.24;59.07
72798;BME280;61084;55.816;37.036;2023-04-28T08:53:22;98997.03;;;16.26;59.03
72798;BME280;61084;55.816;37.036;2023-04-28T08:55:57;99001.69;;;16.33;59.03
72798;BME280;61084;55.816;37.036;2023-04-28T08:58:24;99001.91;;;16.41;58.74
72798;BME280;61084;55.816;37.036;2023-04-28T09:00:52;99002.03;;;16.40;58.58
72798;BME280;61084;55.816;37.036;2023-04-28T09:03:19;99005.09;;;16.35;58.94
72798;BME280;61084;55.816;37.036;2023-04-28T09:05:46;99009.41;;;16.36;58.54
72798;BME280;61084;55.816;37.036;2023-04-28T09:08:12;99012.19;;;16.35;59.48
72798;BME280;61084;55.816;37.036;2023-04-28T09:10:39;99018.19;;;16.37;58.93
72798;BME280;61084;55.816;37.036;2023-04-28T09:13:05;99017.91;;;16.40;59.15
72798;BME280;61084;55.816;37.036;2023-04-28T09:15:32;99013.59;;;16.39;59.42
72798;BME280;61084;55.816;37.036;2023-04-28T09:17:59;99007.59;;;16.37;59.20
72798;BME280;61084;55.816;37.036;2023-04-28T09:20:27;99006.63;;;16.38;58.96
72798;BME280;61084;55.816;37.036;2023-04-28T09:22:54;99005.41;;;16.42;58.63
72798;BME280;61084;55.816;37.036;2023-04-28T09:25:22;99006.38;;;16.41;58.92
72798;BME280;61084;55.816;37.036;2023-04-28T09:27:49;99011.34;;;16.34;58.27
72798;BME280;61084;55.816;37.036;2023-04-28T09:30:15;99014.13;;;16.33;58.48
72798;BME280;61084;55.816;37.036;2023-04-28T09:32:41;99006.28;;;16.31;58.56
72798;BME280;61084;55.816;37.036;2023-04-28T09:35:07;99015.34;;;16.29;58.92
72798;BME280;61084;55.816;37.036;2023-04-28T09:37:34;99004.75;;;16.29;58.88
72798;BME280;61084;55.816;37.036;2023-04-28T09:45:06;99030.38;;;16.28;59.19
72798;BME280;61084;55.816;37.036;2023-04-28T09:47:35;99023.28;;;16.29;59.24
72798;BME280;61084;55.816;37.036;2023-04-28T09:50:03;99030.25;;;16.30;59.51
72798;BME280;61084;55.816;37.036;2023-04-28T09:52:32;99028.69;;;16.27;59.53
72798;BME280;61084;55.816;37.036;2023-04-28T09:55:01;99033.13;;;16.27;60.39
72798;BME280;61084;55.816;37.036;2023-04-28T09:57:33;99035.41;;;16.31;60.29
72798;BME280;61084;55.816;37.036;2023-04-28T10:00:00;99033.94;;;16.38;59.95
72798;BME280;61084;55.816;37.036;2023-04-28T10:02:29;99039.13;;;16.40;60.05
72798;BME280;61084;55.816;37.036;2023-04-28T10:04:55;99036.00;;;16.46;60.08
72798;BME280;61084;55.816;37.036;2023-04-28T10:07:21;99043.31;;;16.53;60.23
72798;BME280;61084;55.816;37.036;2023-04-28T10:09:51;99041.13;;;16.58;59.37
72798;BME280;61084;55.816;37.036;2023-04-28T10:12:17;99045.72;;;16.56;59.46
72798;BME280;61084;55.816;37.036;2023-04-28T10:14:44;99050.19;;;16.56;60.07
72798;BME280;61084;55.816;37.036;2023-04-28T10:17:11;99047.91;;;16.51;59.37
72798;BME280;61084;55.816;37.036;2023-04-28T10:19:40;99049.22;;;16.46;59.37
72798;BME280;61084;55.816;37.036;2023-04-28T10:22:28;99054.41;;;16.47;60.08
72798;BME280;61084;55.816;37.036;2023-04-28T10:27:39;99051.16;;;16.44;58.73
72798;BME280;61084;55.816;37.036;2023-04-28T10:30:21;99053.22;;;16.40;59.55
72798;BME280;61084;55.816;37.036;2023-04-28T10:35:43;99052.69;;;16.46;59.02
72798;BME280;61084;55.816;37.036;2023-04-28T10:38:19;99048.25;;;16.47;59.52
72798;BME280;61084;55.816;37.036;2023-04-28T10:40:52;99049.09;;;16.47;58.95
72798;BME280;61084;55.816;37.036;2023-04-28T10:56:15;99052.47;;;16.49;58.17
72798;BME280;61084;55.816;37.036;2023-04-28T10:58:44;99057.03;;;16.47;58.22
72798;BME280;61084;55.816;37.036;2023-04-28T11:14:29;99083.38;;;16.28;59.33
72798;BME280;61084;55.816;37.036;2023-04-28T11:17:03;99085.06;;;16.18;59.65
72798;BME280;61084;55.816;37.036;2023-04-28T11:19:31;99088.56;;;16.08;58.62
72798;BME280;61084;55.816;37.036;2023-04-28T11:22:02;99090.66;;;15.93;59.42
72798;BME280;61084;55.816;37.036;2023-04-28T11:24:29;99087.41;;;15.78;59.38
72798;BME280;61084;55.816;37.036;2023-04-28T11:26:57;99093.06;;;15.74;59.44
72798;BME280;61084;55.816;37.036;2023-04-28T11:29:37;99091.88;;;15.67;61.01
72798;BME280;61084;55.816;37.036;2023-04-28T11:32:04;99096.22;;;15.57;60.07
72798;BME280;61084;55.816;37.036;2023-04-28T11:34:31;99100.28;;;15.50;59.98
72798;BME280;61084;55.816;37.036;2023-04-28T11:36:57;99092.81;;;15.44;59.78
72798;BME280;61084;55.816;37.036;2023-04-28T11:39:31;99097.22;;;15.32;60.72
72798;BME280;61084;55.816;37.036;2023-04-28T11:42:00;99105.25;;;15.20;60.63
72798;BME280;61084;55.816;37.036;2023-04-28T11:44:29;99112.47;;;15.18;61.38
72798;BME280;61084;55.816;37.036;2023-04-28T11:46:57;99114.22;;;15.06;59.99
72798;BME280;61084;55.816;37.036;2023-04-28T11:51:56;99104.69;;;14.92;60.53
72798;BME280;61084;55.816;37.036;2023-04-28T11:54:26;99101.91;;;14.83;61.27
72798;BME280;61084;55.816;37.036;2023-04-28T11:56:54;99102.34;;;14.77;61.32
72798;BME280;61084;55.816;37.036;2023-04-28T11:59:26;99117.09;;;14.68;60.78
72798;BME280;61084;55.816;37.036;2023-04-28T12:01:57;99118.00;;;14.56;60.31
72798;BME280;61084;55.816;37.036;2023-04-28T12:04:42;99114.13;;;14.49;61.10
72798;BME280;61084;55.816;37.036;2023-04-28T12:07:16;99133.91;;;14.44;59.76
72798;BME280;61084;55.816;37.036;2023-04-28T12:09:46;99127.38;;;14.37;60.05
72798;BME280;61084;55.816;37.036;2023-04-28T12:12:15;99127.06;;;14.28;60.27
72798;BME280;61084;55.816;37.036;2023-04-28T12:14:54;99129.72;;;14.16;60.70
72798;BME280;61084;55.816;37.036;2023-04-28T12:17:25;99135.25;;;14.13;61.15
72798;BME280;61084;55.816;37.036;2023-04-28T12:19:56;99127.88;;;14.05;60.33
72798;BME280;61084;55.816;37.036;2023-04-28T12:22:23;99139.59;;;14.01;60.84
72798;BME280;61084;55.816;37.036;2023-04-28T12:25:05;99135.69;;;13.94;61.43
72798;BME280;61084;55.816;37.036;2023-04-28T12:27:33;99142.69;;;13.83;59.81
72798;BME280;61084;55.816;37.036;2023-04-28T12:29:59;99126.03;;;13.70;60.56
72798;BME280;61084;55.816;37.036;2023-04-28T12:32:41;99122.47;;;13.58;60.64
72798;BME280;61084;55.816;37.036;2023-04-28T12:35:14;99122.03;;;13.51;59.24
72798;BME280;61084;55.816;37.036;2023-04-28T12:37:43;99123.31;;;13.46;60.61
72798;BME280;61084;55.816;37.036;2023-04-28T12:40:09;99135.53;;;13.47;59.90
72798;BME280;61084;55.816;37.036;2023-04-28T12:42:36;99133.66;;;13.36;59.15
72798;BME280;61084;55.816;37.036;2023-04-28T12:45:02;99135.63;;;13.20;60.99
72798;BME280;61084;55.816;37.036;2023-04-28T12:47:31;99130.16;;;13.11;59.87
72798;BME280;61084;55.816;37.036;2023-04-28T12:49:57;99130.16;;;13.11;60.14
72798;BME280;61084;55.816;37.036;2023-04-28T12:52:23;99135.13;;;13.15;60.55
72798;BME280;61084;55.816;37.036;2023-04-28T12:54:49;99130.88;;;13.13;62.12
72798;BME280;61084;55.816;37.036;2023-04-28T12:57:16;99130.44;;;13.06;60.97
72798;BME280;61084;55.816;37.036;2023-04-28T12:59:43;99133.25;;;13.03;61.69
72798;BME280;61084;55.816;37.036;2023-04-28T13:02:09;99126.19;;;12.91;60.64
72798;BME280;61084;55.816;37.036;2023-04-28T13:04:35;99137.75;;;12.88;61.16
72798;BME280;61084;55.816;37.036;2023-04-28T13:07:01;99140.59;;;12.85;60.65
72798;BME280;61084;55.816;37.036;2023-04-28T13:09:28;99146.16;;;12.81;61.67
72798;BME280;61084;55.816;37.036;2023-04-28T13:11:54;99156.38;;;12.73;61.11
72798;BME280;61084;55.816;37.036;2023-04-28T13:14:20;99163.53;;;12.71;61.30
72798;BME280;61084;55.816;37.036;2023-04-28T13:16:47;99154.03;;;12.68;61.08
72798;BME280;61084;55.816;37.036;2023-04-28T13:19:12;99155.00;;;12.67;60.91
72798;BME280;61084;55.816;37.036;2023-04-28T13:21:40;99143.59;;;12.67;61.31
72798;BME280;61084;55.816;37.036;2023-04-28T13:24:08;99147.72;;;12.71;59.83
72798;BME280;61084;55.816;37.036;2023-04-28T13:26:34;99139.47;;;12.63;61.36
72798;BME280;61084;55.816;37.036;2023-04-28T13:29:00;99137.03;;;12.60;61.07
72798;BME280;61084;55.816;37.036;2023-04-28T13:31:30;99148.53;;;12.59;60.77
72798;BME280;61084;55.816;37.036;2023-04-28T13:33:56;99147.22;;;12.52;62.85
72798;BME280;61084;55.816;37.036;2023-04-28T13:36:22;99152.16;;;12.44;61.25
72798;BME280;61084;55.816;37.036;2023-04-28T13:38:49;99156.34;;;12.46;61.25
72798;BME280;61084;55.816;37.036;2023-04-28T13:41:15;99164.19;;;12.48;61.30
72798;BME280;61084;55.816;37.036;2023-04-28T13:43:42;99163.72;;;12.41;61.53
72798;BME280;61084;55.816;37.036;2023-04-28T13:46:09;99154.34;;;12.37;60.32
72798;BME280;61084;55.816;37.036;2023-04-28T13:48:35;99162.59;;;12.31;61.62
72798;BME280;61084;55.816;37.036;2023-04-28T13:51:04;99151.72;;;12.23;63.08
72798;BME280;61084;55.816;37.036;2023-04-28T13:53:31;99162.34;;;12.22;61.70
72798;BME280;61084;55.816;37.036;2023-04-28T13:55:57;99165.19;;;12.19;61.27
72798;BME280;61084;55.816;37.036;2023-04-28T13:58:24;99165.19;;;12.19;61.30